createdAt,value
2019-04-30T00:01:37.041Z,99088.25
2019-04-30T00:04:18.796Z,99088.25
2019-04-30T00:06:47.606Z,99083.16
2019-04-30T00:09:19.282Z,99086.91
2019-04-30T00:11:50.532Z,99085.30
2019-04-30T00:14:18.684Z,99079.28
2019-04-30T00:16:47.613Z,99079.28
2019-04-30T00:19:19.676Z,99082.64
2019-04-30T00:21:48.318Z,99080.34
2019-04-30T00:24:17.457Z,99080.71
2019-04-30T00:26:51.918Z,99082.41
2019-04-30T00:29:26.530Z,99086.52
2019-04-30T00:31:47.424Z,99079.75
2019-04-30T00:34:16.175Z,99080.35
2019-04-30T00:36:45.996Z,99081.77
2019-04-30T00:39:16.742Z,99080.68
2019-04-30T00:41:47.352Z,99072.46
2019-04-30T00:44:20.053Z,99077.41
2019-04-30T00:46:47.993Z,99071.86
2019-04-30T00:49:22.956Z,99070.77
2019-04-30T00:51:49.766Z,99067.95
2019-04-30T00:54:22.126Z,99065.93
2019-04-30T00:56:48.539Z,99067.83
2019-04-30T00:59:17.307Z,99062.52
2019-04-30T01:02:11.351Z,99066.98
2019-04-30T01:04:45.025Z,99066.14
2019-04-30T01:07:15.563Z,99065.28
2019-04-30T01:09:49.421Z,99060.41
2019-04-30T01:12:17.492Z,99058.47
2019-04-30T01:14:45.647Z,99053.16
2019-04-30T01:17:14.399Z,99046.27
2019-04-30T01:19:45.875Z,99047.34
2019-04-30T01:22:13.994Z,99045.91
2019-04-30T01:24:43.136Z,99039.73
2019-04-30T01:27:12.151Z,99044.34
2019-04-30T01:29:44.036Z,99054.67
2019-04-30T01:32:17.426Z,99044.69
2019-04-30T01:34:44.264Z,99049.77
2019-04-30T01:37:12.785Z,99050.81
2019-04-30T01:39:41.654Z,99055.16
2019-04-30T01:42:11.464Z,99057.45
2019-04-30T01:44:43.492Z,99057.63
2019-04-30T01:47:10.928Z,99052.19
2019-04-30T01:49:42.710Z,99059.80
2019-04-30T01:52:10.193Z,99061.63
2019-04-30T01:54:39.231Z,99064.56
2019-04-30T01:57:31.909Z,99062.84
2019-04-30T02:00:34.749Z,99063.63
2019-04-30T02:03:03.584Z,99066.03
2019-04-30T02:05:32.325Z,99055.50
2019-04-30T02:08:01.309Z,99059.62
2019-04-30T02:10:30.055Z,99062.28
2019-04-30T02:12:59.140Z,99055.92
2019-04-30T02:15:29.199Z,99053.70
2019-04-30T02:17:58.781Z,99057.48
2019-04-30T02:20:28.675Z,99056.38
2019-04-30T02:22:58.703Z,99053.84
2019-04-30T02:25:29.590Z,99053.16
2019-04-30T02:27:59.015Z,99049.66
2019-04-30T02:30:30.919Z,99049.89
2019-04-30T02:33:00.566Z,99057.73
2019-04-30T02:35:40.694Z,99052.12
2019-04-30T02:38:20.286Z,99054.83
2019-04-30T02:40:50.531Z,99048.64
2019-04-30T02:43:20.650Z,99052.16
2019-04-30T02:45:51.662Z,99055.33
2019-04-30T02:48:23.264Z,99055.50
2019-04-30T02:50:53.310Z,99049.22
2019-04-30T02:54:00.620Z,99050.36
2019-04-30T02:56:30.064Z,99047.67
2019-04-30T02:59:00.380Z,99053.84
2019-04-30T03:01:30.573Z,99057.70
2019-04-30T03:03:59.891Z,99052.25
2019-04-30T03:06:30.388Z,99050.19
2019-04-30T03:09:01.119Z,99048.53
2019-04-30T03:11:30.315Z,99051.00
2019-04-30T03:13:59.518Z,99046.69
2019-04-30T03:16:35.793Z,99041.39
2019-04-30T03:19:12.360Z,99042.11
2019-04-30T03:21:54.165Z,99041.63
2019-04-30T03:24:22.925Z,99043.26
2019-04-30T03:26:51.781Z,99044.03
2019-04-30T03:29:23.884Z,99050.00
2019-04-30T03:31:52.547Z,99049.05
2019-04-30T03:34:25.824Z,99047.02
2019-04-30T03:36:51.969Z,99046.44
2019-04-30T03:39:20.718Z,99047.32
2019-04-30T03:41:50.219Z,99043.78
2019-04-30T03:44:25.554Z,99047.76
2019-04-30T03:46:49.975Z,99058.32
2019-04-30T03:49:20.228Z,99059.32
2019-04-30T03:51:49.863Z,99055.56
2019-04-30T03:54:19.502Z,99057.11
2019-04-30T03:56:50.154Z,99057.22
2019-04-30T03:59:19.910Z,99053.06
2019-04-30T04:02:14.253Z,99051.59
2019-04-30T04:04:52.660Z,99052.22
2019-04-30T04:07:30.017Z,99052.91
2019-04-30T04:10:10.090Z,99056.30
2019-04-30T04:12:39.555Z,99059.69
2019-04-30T04:15:10.405Z,99055.34
2019-04-30T04:17:39.993Z,99057.73
2019-04-30T04:20:10.543Z,99060.28
2019-04-30T04:22:40.336Z,99060.39
2019-04-30T04:25:10.105Z,99065.80
2019-04-30T04:27:39.876Z,99067.55
2019-04-30T04:30:10.638Z,99068.30
2019-04-30T04:32:40.566Z,99076.38
2019-04-30T04:35:12.665Z,99068.65
2019-04-30T04:37:40.316Z,99074.21
2019-04-30T04:40:09.586Z,99074.53
2019-04-30T04:42:39.532Z,99066.49
2019-04-30T04:45:09.844Z,99073.45
2019-04-30T04:47:40.191Z,99075.03
2019-04-30T04:50:10.624Z,99077.68
2019-04-30T04:52:39.711Z,99068.23
2019-04-30T04:55:10.035Z,99071.84
2019-04-30T04:57:39.981Z,99073.53
2019-04-30T05:00:10.619Z,99070.14
2019-04-30T05:03:09.461Z,99073.84
2019-04-30T05:05:39.848Z,99076.34
2019-04-30T05:08:08.830Z,99076.64
2019-04-30T05:10:39.213Z,99083.77
2019-04-30T05:13:09.217Z,99076.30
2019-04-30T05:15:39.017Z,99079.91
2019-04-30T05:18:09.188Z,99081.48
2019-04-30T05:20:39.887Z,99085.98
2019-04-30T05:23:09.477Z,99080.06
2019-04-30T05:25:39.031Z,99079.99
2019-04-30T05:28:08.713Z,99083.38
2019-04-30T05:30:39.335Z,99083.38
2019-04-30T05:33:08.844Z,99087.25
2019-04-30T05:35:38.871Z,99088.09
2019-04-30T05:38:09.348Z,99087.47
2019-04-30T05:40:39.550Z,99089.16
2019-04-30T05:43:11.094Z,99098.45
2019-04-30T05:45:58.756Z,99094.58
2019-04-30T05:48:28.649Z,99100.52
2019-04-30T05:50:59.146Z,99098.62
2019-04-30T05:53:28.708Z,99105.11
2019-04-30T05:55:59.265Z,99103.64
2019-04-30T05:58:29.999Z,99099.55
2019-04-30T06:00:59.709Z,99100.17
2019-04-30T06:03:32.951Z,99096.69
2019-04-30T06:05:59.459Z,99101.81
2019-04-30T06:08:33.565Z,99102.19
2019-04-30T06:11:09.395Z,99104.25
2019-04-30T06:13:55.947Z,99108.63
2019-04-30T06:16:26.435Z,99104.30
2019-04-30T06:18:55.461Z,99112.95
2019-04-30T06:21:24.403Z,99112.95
2019-04-30T06:23:53.314Z,99115.38
2019-04-30T06:26:22.566Z,99112.50
2019-04-30T06:28:51.657Z,99113.46
2019-04-30T06:31:31.905Z,99123.06
2019-04-30T06:33:51.320Z,99116.17
2019-04-30T06:36:20.600Z,99121.88
2019-04-30T06:38:49.445Z,99126.88
2019-04-30T06:41:19.782Z,99116.06
2019-04-30T06:43:49.754Z,99121.14
2019-04-30T06:46:18.887Z,99120.55
2019-04-30T06:48:50.806Z,99124.87
2019-04-30T06:51:18.937Z,99125.55
2019-04-30T06:53:49.544Z,99126.48
2019-04-30T06:56:18.971Z,99135.06
2019-04-30T06:58:49.371Z,99134.78
2019-04-30T07:01:19.107Z,99135.66
2019-04-30T07:03:48.743Z,99133.72
2019-04-30T07:06:27.521Z,99141.28
2019-04-30T07:09:03.778Z,99135.48
2019-04-30T07:11:39.219Z,99139.22
2019-04-30T07:14:09.651Z,99135.14
2019-04-30T07:16:39.742Z,99134.00
2019-04-30T07:19:09.305Z,99136.03
2019-04-30T07:21:42.748Z,99137.96
2019-04-30T07:24:09.405Z,99135.26
2019-04-30T07:26:38.886Z,99126.09
2019-04-30T07:29:09.615Z,99127.17
2019-04-30T07:31:39.291Z,99133.88
2019-04-30T07:34:09.243Z,99133.80
2019-04-30T07:36:46.961Z,99135.61
2019-04-30T07:39:10.085Z,99136.09
2019-04-30T07:41:40.312Z,99135.98
2019-04-30T07:44:10.994Z,99131.66
2019-04-30T07:46:41.217Z,99130.20
2019-04-30T07:49:10.220Z,99128.66
2019-04-30T07:51:41.684Z,99132.09
2019-04-30T07:54:09.376Z,99134.63
2019-04-30T07:56:41.499Z,99133.30
2019-04-30T07:59:11.063Z,99142.00
2019-04-30T08:01:59.616Z,99143.36
2019-04-30T08:04:29.407Z,99145.17
2019-04-30T08:06:59.834Z,99147.95
2019-04-30T08:09:38.740Z,99147.95
2019-04-30T08:11:59.613Z,99142.36
2019-04-30T08:14:28.843Z,99137.03
2019-04-30T08:16:58.942Z,99141.22
2019-04-30T08:19:28.685Z,99147.84
2019-04-30T08:21:58.597Z,99147.11
2019-04-30T08:24:29.173Z,99153.45
2019-04-30T08:26:59.103Z,99155.23
2019-04-30T08:29:29.503Z,99146.72
2019-04-30T08:31:59.375Z,99148.77
2019-04-30T08:34:29.232Z,99155.41
2019-04-30T08:36:59.466Z,99149.42
2019-04-30T08:39:29.433Z,99153.72
2019-04-30T08:42:00.016Z,99154.72
2019-04-30T08:44:29.489Z,99149.39
2019-04-30T08:46:59.033Z,99151.92
2019-04-30T08:49:30.351Z,99147.87
2019-04-30T08:51:58.747Z,99143.52
2019-04-30T08:54:29.397Z,99143.52
2019-04-30T08:56:59.517Z,99148.95
2019-04-30T08:59:29.457Z,99133.39
2019-04-30T09:01:58.871Z,99143.11
2019-04-30T09:04:29.997Z,99155.39
2019-04-30T09:07:00.059Z,99143.97
2019-04-30T09:09:30.708Z,99143.81
2019-04-30T09:11:59.492Z,99137.39
2019-04-30T09:14:29.743Z,99145.95
2019-04-30T09:16:59.552Z,99134.42
2019-04-30T09:19:29.818Z,99133.70
2019-04-30T09:21:59.077Z,99141.04
2019-04-30T09:24:30.664Z,99137.64
2019-04-30T09:26:59.064Z,99135.89
2019-04-30T09:29:29.268Z,99137.43
2019-04-30T09:31:59.397Z,99146.01
2019-04-30T09:34:29.190Z,99141.37
2019-04-30T09:36:58.934Z,99139.86
2019-04-30T09:39:29.557Z,99139.97
2019-04-30T09:41:59.577Z,99134.83
2019-04-30T09:44:30.538Z,99137.53
2019-04-30T09:46:58.975Z,99144.54
2019-04-30T09:49:29.394Z,99134.55
2019-04-30T09:51:59.520Z,99133.72
2019-04-30T09:54:29.487Z,99131.67
2019-04-30T09:56:59.041Z,99121.61
2019-04-30T09:59:29.163Z,99115.66
2019-04-30T10:01:58.001Z,99111.23
2019-04-30T10:04:27.832Z,99129.78
2019-04-30T10:06:59.419Z,99121.05
2019-04-30T10:09:29.326Z,99113.47
2019-04-30T10:12:13.576Z,99111.41
2019-04-30T10:14:42.421Z,99100.98
2019-04-30T10:17:21.511Z,99104.52
2019-04-30T10:19:50.270Z,99108.83
2019-04-30T10:22:19.068Z,99098.62
2019-04-30T10:24:49.465Z,99096.27
2019-04-30T10:27:19.240Z,99092.85
2019-04-30T10:29:49.451Z,99096.38
2019-04-30T10:32:18.780Z,99088.04
2019-04-30T10:34:47.931Z,99092.55
2019-04-30T10:37:18.762Z,99086.73
2019-04-30T10:39:48.966Z,99092.59
2019-04-30T10:42:18.237Z,99080.00
2019-04-30T10:44:47.054Z,99081.08
2019-04-30T10:47:15.934Z,99080.55
2019-04-30T10:49:44.727Z,99082.27
2019-04-30T10:52:13.894Z,99075.97
2019-04-30T10:54:42.981Z,99076.34
2019-04-30T10:57:11.804Z,99079.36
2019-04-30T10:59:40.627Z,99076.75
2019-04-30T11:02:09.464Z,99093.30
2019-04-30T11:04:39.187Z,99077.94
2019-04-30T11:07:08.604Z,99072.08
2019-04-30T11:09:39.386Z,99071.03
2019-04-30T11:12:09.507Z,99081.31
2019-04-30T11:14:38.371Z,99075.91
2019-04-30T11:17:09.637Z,99065.13
2019-04-30T11:19:39.101Z,99070.03
2019-04-30T11:22:08.197Z,99066.85
2019-04-30T11:24:53.402Z,99057.50
2019-04-30T11:27:09.970Z,99069.95
2019-04-30T11:29:39.375Z,99064.52
2019-04-30T11:32:13.866Z,99056.13
2019-04-30T11:34:42.761Z,99056.22
2019-04-30T11:37:11.787Z,99055.87
2019-04-30T11:39:40.908Z,99047.98
2019-04-30T11:42:10.041Z,99053.31
2019-04-30T11:44:40.339Z,99044.38
2019-04-30T11:47:19.435Z,99032.10
2019-04-30T11:49:48.241Z,99035.34
2019-04-30T11:52:17.069Z,99029.39
2019-04-30T11:54:51.336Z,99027.03
2019-04-30T11:57:18.580Z,99028.38
2019-04-30T11:59:47.359Z,99015.27
2019-04-30T12:02:24.376Z,99024.34
2019-04-30T12:04:53.131Z,99013.27
2019-04-30T12:07:28.228Z,99012.77
2019-04-30T12:10:11.468Z,99018.31
2019-04-30T12:12:40.248Z,99012.41
2019-04-30T12:15:09.658Z,99009.38
2019-04-30T12:17:38.390Z,99003.12
2019-04-30T12:20:08.625Z,99000.94
2019-04-30T12:22:39.639Z,98997.07
2019-04-30T12:25:10.009Z,98988.83
2019-04-30T12:27:38.961Z,98993.68
2019-04-30T12:30:08.930Z,98994.35
2019-04-30T12:32:39.288Z,98992.36
2019-04-30T12:35:08.783Z,98995.86
2019-04-30T12:37:39.110Z,98988.22
2019-04-30T12:40:25.581Z,98997.01
2019-04-30T12:42:40.479Z,98993.14
2019-04-30T12:45:09.586Z,98985.57
2019-04-30T12:47:42.657Z,98991.83
2019-04-30T12:50:33.550Z,98981.20
2019-04-30T12:53:06.177Z,98978.84
2019-04-30T12:56:00.133Z,98983.12
2019-04-30T12:58:27.276Z,98972.42
2019-04-30T13:00:56.183Z,98970.44
2019-04-30T13:03:25.063Z,98965.26
2019-04-30T13:05:54.576Z,98968.66
2019-04-30T13:08:24.303Z,98968.63
2019-04-30T13:10:53.969Z,98965.95
2019-04-30T13:13:24.006Z,98960.75
2019-04-30T13:15:53.467Z,98958.90
2019-04-30T13:18:22.383Z,98956.85
2019-04-30T13:20:51.723Z,98961.41
2019-04-30T13:23:20.472Z,98952.33
2019-04-30T13:25:51.658Z,98952.34
2019-04-30T13:28:22.076Z,98949.13
2019-04-30T13:30:50.866Z,98949.97
2019-04-30T13:33:28.994Z,98944.11
2019-04-30T13:36:00.773Z,98942.59
2019-04-30T13:38:45.126Z,98938.16
2019-04-30T13:41:23.541Z,98939.69
2019-04-30T13:44:00.627Z,98936.36
2019-04-30T13:46:29.668Z,98931.95
2019-04-30T13:48:58.495Z,98938.53
2019-04-30T13:51:46.513Z,98938.03
2019-04-30T13:54:15.334Z,98935.16
2019-04-30T13:56:44.143Z,98930.28
2019-04-30T13:59:13.051Z,98927.27
2019-04-30T14:01:41.808Z,98933.16
2019-04-30T14:04:35.588Z,98927.09
2019-04-30T14:07:27.803Z,98914.47
2019-04-30T14:09:56.723Z,98923.02
2019-04-30T14:12:25.523Z,98928.05
2019-04-30T14:14:54.277Z,98914.55
2019-04-30T14:17:23.108Z,98924.96
2019-04-30T14:19:51.957Z,98919.62
2019-04-30T14:22:20.704Z,98916.55
2019-04-30T14:25:11.350Z,98926.52
2019-04-30T14:27:56.417Z,98922.51
2019-04-30T14:30:32.001Z,98918.63
2019-04-30T14:33:01.184Z,98928.05
2019-04-30T14:35:56.428Z,98914.27
2019-04-30T14:39:13.632Z,98916.06
2019-04-30T14:41:43.245Z,98918.59
2019-04-30T14:44:18.403Z,98917.92
2019-04-30T14:47:17.068Z,98914.55
2019-04-30T14:53:42.582Z,98911.55
2019-04-30T14:56:35.293Z,98903.81
2019-04-30T14:59:31.353Z,98907.77
2019-04-30T15:03:05.001Z,98904.11
2019-04-30T15:06:13.080Z,98897.70
2019-04-30T15:08:41.818Z,98899.33
2019-04-30T15:11:10.747Z,98894.53
2019-04-30T15:13:39.571Z,98892.36
2019-04-30T15:16:08.421Z,98889.67
2019-04-30T15:18:38.893Z,98883.33
2019-04-30T15:21:09.559Z,98880.41
2019-04-30T15:24:09.715Z,98884.30
2019-04-30T15:26:41.231Z,98883.28
2019-04-30T15:29:12.373Z,98884.11
2019-04-30T15:31:42.539Z,98883.63
2019-04-30T15:34:12.152Z,98886.45
2019-04-30T15:36:41.727Z,98878.84
2019-04-30T15:39:20.536Z,98889.50
2019-04-30T15:41:49.336Z,98879.63
2019-04-30T15:44:18.233Z,98884.30
2019-04-30T15:46:47.063Z,98887.34
2019-04-30T15:49:16.158Z,98888.73
2019-04-30T15:51:44.904Z,98889.23
2019-04-30T15:54:13.950Z,98889.71
2019-04-30T15:56:43.857Z,98894.77
2019-04-30T15:59:40.522Z,98895.29
2019-04-30T16:02:18.769Z,98895.75
2019-04-30T16:05:03.294Z,98900.00
2019-04-30T16:07:32.154Z,98892.06
2019-04-30T16:10:08.989Z,98895.09
2019-04-30T16:12:45.950Z,98892.23
2019-04-30T16:15:14.860Z,98894.44
2019-04-30T16:17:45.586Z,98892.09
2019-04-30T16:20:14.725Z,98887.34
2019-04-30T16:22:43.550Z,98880.27
2019-04-30T16:25:13.744Z,98879.95
2019-04-30T16:27:42.766Z,98879.80
2019-04-30T16:30:11.760Z,98889.19
2019-04-30T16:32:40.491Z,98881.64
2019-04-30T16:35:09.376Z,98882.81
2019-04-30T16:37:38.819Z,98875.25
2019-04-30T16:40:08.587Z,98882.66
2019-04-30T16:42:38.994Z,98878.95
2019-04-30T16:45:10.055Z,98878.95
2019-04-30T16:47:38.802Z,98878.30
2019-04-30T16:50:09.033Z,98873.22
2019-04-30T16:52:39.379Z,98867.68
2019-04-30T16:55:08.328Z,98873.08
2019-04-30T16:57:39.557Z,98870.74
2019-04-30T17:00:10.017Z,98873.56
2019-04-30T17:02:41.008Z,98868.50
2019-04-30T17:05:16.983Z,98865.51
2019-04-30T17:07:55.454Z,98864.50
2019-04-30T17:10:43.259Z,98865.02
2019-04-30T17:13:21.461Z,98868.70
2019-04-30T17:15:52.085Z,98866.36
2019-04-30T17:18:20.820Z,98865.84
2019-04-30T17:20:49.754Z,98870.22
2019-04-30T17:23:19.349Z,98868.68
2019-04-30T17:25:48.227Z,98865.51
2019-04-30T17:28:18.804Z,98874.41
2019-04-30T17:30:49.128Z,98866.70
2019-04-30T17:33:18.126Z,98868.55
2019-04-30T17:35:46.868Z,98866.18
2019-04-30T17:38:15.640Z,98867.23
2019-04-30T17:40:44.392Z,98868.73
2019-04-30T17:43:13.272Z,98866.55
2019-04-30T17:45:42.158Z,98873.94
2019-04-30T17:48:11.220Z,98872.58
2019-04-30T17:50:40.065Z,98865.52
2019-04-30T17:53:09.165Z,98869.36
2019-04-30T17:55:39.127Z,98861.15
2019-04-30T17:58:09.809Z,98858.88
2019-04-30T18:00:40.858Z,98856.98
2019-04-30T18:03:10.996Z,98860.05
2019-04-30T18:05:41.317Z,98864.37
2019-04-30T18:08:10.674Z,98865.98
2019-04-30T18:10:40.104Z,98865.16
2019-04-30T18:13:09.378Z,98864.91
2019-04-30T18:15:38.780Z,98868.36
2019-04-30T18:18:34.729Z,98859.71
2019-04-30T18:21:23.513Z,98870.98
2019-04-30T18:24:09.885Z,98866.41
2019-04-30T18:26:44.955Z,98868.57
2019-04-30T18:29:14.076Z,98867.75
2019-04-30T18:31:42.851Z,98872.05
2019-04-30T18:34:11.605Z,98868.34
2019-04-30T18:36:40.458Z,98867.55
2019-04-30T18:39:09.402Z,98877.08
2019-04-30T18:41:38.457Z,98872.99
2019-04-30T18:44:09.405Z,98874.33
2019-04-30T18:46:39.043Z,98876.53
2019-04-30T18:49:10.271Z,98877.09
2019-04-30T18:51:42.407Z,98880.39
2019-04-30T18:54:09.852Z,98882.22
2019-04-30T18:56:38.995Z,98878.05
2019-04-30T18:59:08.771Z,98880.23
2019-04-30T19:01:37.836Z,98874.23
2019-04-30T19:04:08.856Z,98877.98
2019-04-30T19:06:37.444Z,98878.95
2019-04-30T19:09:27.037Z,98885.67
2019-04-30T19:12:12.196Z,98885.48
2019-04-30T19:14:56.466Z,98894.09
2019-04-30T19:17:39.332Z,98894.94
2019-04-30T19:20:31.035Z,98896.08
2019-04-30T19:23:00.244Z,98892.52
2019-04-30T19:25:29.068Z,98891.22
2019-04-30T19:28:09.566Z,98897.12
2019-04-30T19:30:29.284Z,98894.59
2019-04-30T19:32:58.989Z,98896.28
2019-04-30T19:35:27.918Z,98893.45
2019-04-30T19:37:56.754Z,98887.47
2019-04-30T19:40:25.505Z,98888.50
2019-04-30T19:42:54.252Z,98892.83
2019-04-30T19:45:23.168Z,98901.94
2019-04-30T19:47:52.022Z,98899.06
2019-04-30T19:50:21.055Z,98896.84
2019-04-30T19:52:50.179Z,98898.56
2019-04-30T19:55:20.689Z,98894.36
2019-04-30T19:57:51.042Z,98897.38
2019-04-30T20:00:20.511Z,98901.45
2019-04-30T20:02:49.349Z,98899.18
2019-04-30T20:05:19.423Z,98897.23
2019-04-30T20:07:49.321Z,98897.42
2019-04-30T20:10:19.535Z,98901.63
2019-04-30T20:12:49.780Z,98901.41
2019-04-30T20:15:22.203Z,98899.52
2019-04-30T20:17:49.976Z,98900.91
2019-04-30T20:20:19.041Z,98900.86
2019-04-30T20:22:47.773Z,98895.24
2019-04-30T20:25:16.560Z,98895.27
2019-04-30T20:27:45.321Z,98896.34
2019-04-30T20:30:14.544Z,98895.01
2019-04-30T20:32:43.307Z,98901.39
2019-04-30T20:35:12.191Z,98902.66
2019-04-30T20:37:59.426Z,98894.70
2019-04-30T20:40:43.555Z,98896.68
2019-04-30T20:43:10.562Z,98897.63
2019-04-30T20:45:39.299Z,98891.38
2019-04-30T20:48:08.966Z,98893.42
2019-04-30T20:50:37.751Z,98892.09
2019-04-30T20:53:08.728Z,98891.38
2019-04-30T20:55:38.817Z,98900.15
2019-04-30T20:58:09.459Z,98893.81
2019-04-30T21:00:38.173Z,98891.77
2019-04-30T21:03:06.897Z,98895.30
2019-04-30T21:05:35.700Z,98890.51
2019-04-30T21:08:04.505Z,98886.63
2019-04-30T21:10:33.244Z,98885.42
2019-04-30T21:13:02.314Z,98885.80
2019-04-30T21:15:31.131Z,98874.67
2019-04-30T21:18:00.359Z,98882.91
2019-04-30T21:20:29.144Z,98880.70
2019-04-30T21:22:59.648Z,98887.69
2019-04-30T21:25:29.156Z,98884.77
2019-04-30T21:27:59.955Z,98888.83
2019-04-30T21:30:28.666Z,98885.77
2019-04-30T21:33:10.335Z,98882.73
2019-04-30T21:35:42.133Z,98879.47
2019-04-30T21:38:10.926Z,98882.88
2019-04-30T21:40:39.705Z,98873.87
2019-04-30T21:43:08.544Z,98878.83
2019-04-30T21:45:39.694Z,98879.57
2019-04-30T21:48:09.168Z,98878.04
2019-04-30T21:50:39.736Z,98873.93
2019-04-30T21:53:09.888Z,98872.83
2019-04-30T21:55:39.843Z,98871.41
2019-04-30T21:58:09.559Z,98868.88
2019-04-30T22:00:56.477Z,98865.25
2019-04-30T22:03:25.269Z,98872.39
2019-04-30T22:05:54.237Z,98869.72
2019-04-30T22:08:22.985Z,98871.20
2019-04-30T22:10:51.792Z,98865.86
2019-04-30T22:13:20.519Z,98865.02
2019-04-30T22:15:49.360Z,98860.25
2019-04-30T22:18:18.054Z,98864.83
2019-04-30T22:20:46.793Z,98863.29
2019-04-30T22:23:15.668Z,98873.58
2019-04-30T22:25:44.401Z,98864.04
2019-04-30T22:28:13.164Z,98868.67
2019-04-30T22:30:41.912Z,98874.80
2019-04-30T22:33:10.939Z,98869.38
2019-04-30T22:35:57.553Z,98864.27
2019-04-30T22:38:29.570Z,98874.58
2019-04-30T22:40:58.857Z,98873.81
2019-04-30T22:43:27.891Z,98875.59
2019-04-30T22:46:00.806Z,98871.40
2019-04-30T22:48:29.576Z,98877.17
2019-04-30T22:50:58.306Z,98877.09
2019-04-30T22:53:27.086Z,98877.27
2019-04-30T22:55:55.788Z,98874.63
2019-04-30T22:58:24.703Z,98871.53
2019-04-30T23:00:57.097Z,98874.13
2019-04-30T23:03:34.678Z,98871.02
2019-04-30T23:06:03.497Z,98867.87
2019-04-30T23:08:32.222Z,98871.77
2019-04-30T23:11:01.036Z,98859.78
2019-04-30T23:13:29.774Z,98863.59
2019-04-30T23:15:58.677Z,98863.73
2019-04-30T23:18:27.507Z,98858.34
2019-04-30T23:20:56.310Z,98855.25
2019-04-30T23:23:25.049Z,98855.88
2019-04-30T23:25:53.843Z,98845.97
2019-04-30T23:28:22.572Z,98848.14
2019-04-30T23:30:51.397Z,98847.84
2019-04-30T23:33:20.148Z,98840.20
2019-04-30T23:35:48.889Z,98840.20
2019-04-30T23:38:17.625Z,98839.33
2019-04-30T23:40:49.464Z,98837.14
2019-04-30T23:43:18.970Z,98837.14
2019-04-30T23:45:47.740Z,98834.84
2019-04-30T23:48:16.748Z,98841.00
2019-04-30T23:50:45.494Z,98837.98
2019-04-30T23:53:14.323Z,98829.19
2019-04-30T23:55:43.274Z,98839.39
2019-04-30T23:58:12.014Z,98826.84
